PWSweather.com
Personal Weather Stations
Station Observations
KCTHAMDEN
Dunbar Hill, Hamden, CT 06514

Dunbar HillHamden, CT 06514

Lat: 41.365437, Lon: -72.956532

Elevation: 200

Station Type: Davis Vantage Pro2+

www.hamdenweather.com

High Low Average
Temperature 94.3°F34.6°C 71.8°F22.1°C 82.0°F27.8°C
Dew Point 82.0°F27.8°C 70.6°F21.4°C 75.6°F24.2°C
Winds 2.6 mph 4.2 kmh Calm Calm Calm SCalm S
Wind Gusts 7.0 mph11.3 kmh -- 1.0 mph1.6 kmh
Humidity 97% 59% 82%
Pressure 30.04 in1017.3 mb 29.96 in1014.6 mb -
Precipitation 0.00 in0.0 mm - -
Hour Temp Dew Point Humidity Winds Wind Gusts Pressure Precip Precip Rate Daily Precip Total
12:00 AM 74.0°F23.3°C 71.8°F22.1°C 93% Calm Calm -- 30.02 in1016.6 mb - 0.00 in0.0 mm 0.00 in0.0 mm
12:15 AM 73.9°F23.3°C 71.7°F22.1°C 93% Calm Calm -- 30.02 in1016.6 mb - 0.00 in0.0 mm 0.00 in0.0 mm
12:30 AM 73.8°F23.2°C 71.6°F22.0°C 93% Calm Calm -- 30.02 in1016.6 mb - 0.00 in0.0 mm 0.00 in0.0 mm
12:45 AM 73.7°F23.2°C 71.9°F22.2°C 94% Calm Calm -- 30.02 in1016.6 mb - 0.00 in0.0 mm 0.00 in0.0 mm
01:00 AM 73.6°F23.1°C 71.8°F22.1°C 94% Calm Calm -- 30.02 in1016.6 mb - 0.00 in0.0 mm 0.00 in0.0 mm
01:15 AM 73.5°F23.1°C 71.7°F22.1°C 94% Calm Calm -- 30.02 in1016.6 mb - 0.00 in0.0 mm 0.00 in0.0 mm
01:30 AM 73.5°F23.1°C 71.7°F22.1°C 94% Calm Calm -- 30.02 in1016.6 mb - 0.00 in0.0 mm 0.00 in0.0 mm
01:45 AM 73.5°F23.1°C 72.0°F22.2°C 95% Calm Calm -- 30.02 in1016.6 mb - 0.00 in0.0 mm 0.00 in0.0 mm
02:00 AM 73.5°F23.1°C 72.0°F22.2°C 95% Calm Calm -- 30.02 in1016.6 mb - 0.00 in0.0 mm 0.00 in0.0 mm
02:15 AM 73.5°F23.1°C 72.0°F22.2°C 95% Calm Calm -- 30.02 in1016.6 mb - 0.00 in0.0 mm 0.00 in0.0 mm
02:30 AM 73.4°F23.0°C 71.9°F22.2°C 95% Calm Calm -- 30.02 in1016.6 mb - 0.00 in0.0 mm 0.00 in0.0 mm
02:45 AM 73.2°F22.9°C 71.7°F22.1°C 95% Calm Calm -- 30.02 in1016.6 mb - 0.00 in0.0 mm 0.00 in0.0 mm
03:00 AM 73.0°F22.8°C 71.5°F21.9°C 95% Calm Calm -- 30.02 in1016.6 mb - 0.00 in0.0 mm 0.00 in0.0 mm
03:15 AM 72.7°F22.6°C 71.2°F21.8°C 95% Calm Calm -- 30.02 in1016.6 mb - 0.00 in0.0 mm 0.00 in0.0 mm
03:30 AM 72.4°F22.4°C 70.9°F21.6°C 95% Calm Calm -- 30.02 in1016.6 mb - 0.00 in0.0 mm 0.00 in0.0 mm
03:45 AM 72.2°F22.3°C 70.7°F21.5°C 95% Calm Calm -- 30.02 in1016.6 mb - 0.00 in0.0 mm 0.00 in0.0 mm
04:00 AM 72.2°F22.3°C 70.7°F21.5°C 95% Calm Calm -- 30.02 in1016.6 mb - 0.00 in0.0 mm 0.00 in0.0 mm
04:15 AM 72.2°F22.3°C 71.0°F21.7°C 96% Calm Calm -- 30.02 in1016.6 mb - 0.00 in0.0 mm 0.00 in0.0 mm
04:30 AM 72.1°F22.3°C 70.9°F21.6°C 96% Calm Calm -- 30.02 in1016.6 mb - 0.00 in0.0 mm 0.00 in0.0 mm
04:45 AM 71.8°F22.1°C 70.6°F21.4°C 96% Calm Calm -- 30.02 in1016.6 mb - 0.00 in0.0 mm 0.00 in0.0 mm
05:00 AM 72.0°F22.2°C 70.8°F21.6°C 96% 0.3 mph S0.5 kmh S -- 30.02 in1016.6 mb - 0.00 in0.0 mm 0.00 in0.0 mm
05:15 AM 72.4°F22.4°C 71.2°F21.8°C 96% Calm Calm 2.0 mph3.2 kmh 30.02 in1016.6 mb - 0.00 in0.0 mm 0.00 in0.0 mm
05:30 AM 72.5°F22.5°C 71.3°F21.8°C 96% 0.5 mph SSW0.8 kmh SSW 1.0 mph1.6 kmh 30.02 in1016.6 mb - 0.00 in0.0 mm 0.00 in0.0 mm
05:45 AM 72.6°F22.6°C 71.4°F21.9°C 96% Calm Calm -- 30.02 in1016.6 mb - 0.00 in0.0 mm 0.00 in0.0 mm
06:00 AM 72.5°F22.5°C 71.6°F22.0°C 97% 0.1 mph SSW0.2 kmh SSW -- 30.03 in1016.9 mb - 0.00 in0.0 mm 0.00 in0.0 mm
06:15 AM 72.7°F22.6°C 71.8°F22.1°C 97% Calm Calm -- 30.03 in1016.9 mb - 0.00 in0.0 mm 0.00 in0.0 mm
06:30 AM 72.7°F22.6°C 71.8°F22.1°C 97% Calm Calm -- 30.03 in1016.9 mb - 0.00 in0.0 mm 0.00 in0.0 mm
06:45 AM 72.8°F22.7°C 71.9°F22.2°C 97% Calm Calm -- 30.04 in1017.3 mb - 0.00 in0.0 mm 0.00 in0.0 mm
07:00 AM 72.6°F22.6°C 71.7°F22.1°C 97% Calm Calm -- 30.04 in1017.3 mb - 0.00 in0.0 mm 0.00 in0.0 mm
07:15 AM 72.5°F22.5°C 71.6°F22.0°C 97% Calm Calm -- 30.04 in1017.3 mb - 0.00 in0.0 mm 0.00 in0.0 mm
07:30 AM 72.8°F22.7°C 71.9°F22.2°C 97% Calm Calm -- 30.04 in1017.3 mb - 0.00 in0.0 mm 0.00 in0.0 mm
07:45 AM 73.4°F23.0°C 72.5°F22.5°C 97% Calm Calm -- 30.04 in1017.3 mb - 0.00 in0.0 mm 0.00 in0.0 mm
08:00 AM 74.1°F23.4°C 73.2°F22.9°C 97% Calm Calm -- 30.04 in1017.3 mb - 0.00 in0.0 mm 0.00 in0.0 mm
08:15 AM 74.4°F23.6°C 73.1°F22.8°C 96% Calm Calm -- 30.03 in1016.9 mb - 0.00 in0.0 mm 0.00 in0.0 mm
08:30 AM 74.7°F23.7°C 73.5°F23.1°C 96% Calm Calm -- 30.03 in1016.9 mb - 0.00 in0.0 mm 0.00 in0.0 mm
08:45 AM 75.2°F24.0°C 73.9°F23.3°C 96% Calm Calm -- 30.04 in1017.3 mb - 0.00 in0.0 mm 0.00 in0.0 mm
09:00 AM 75.8°F24.3°C 74.6°F23.7°C 96% Calm Calm -- 30.04 in1017.3 mb - 0.00 in0.0 mm 0.00 in0.0 mm
09:15 AM 76.9°F24.9°C 75.6°F24.2°C 96% Calm Calm -- 30.03 in1016.9 mb - 0.00 in0.0 mm 0.00 in0.0 mm
09:30 AM 78.9°F26.1°C 77.0°F25.0°C 94% Calm Calm -- 30.03 in1016.9 mb - 0.00 in0.0 mm 0.00 in0.0 mm
09:45 AM 80.9°F27.2°C 78.0°F25.6°C 91% Calm Calm -- 30.03 in1016.9 mb - 0.00 in0.0 mm 0.00 in0.0 mm
10:00 AM 83.5°F28.6°C 78.9°F26.1°C 86% 0.3 mph SSW0.5 kmh SSW 4.0 mph6.4 kmh 30.03 in1016.9 mb - 0.00 in0.0 mm 0.00 in0.0 mm
10:15 AM 85.5°F29.7°C 78.6°F25.9°C 80% 0.5 mph N0.8 kmh N 1.0 mph1.6 kmh 30.04 in1017.3 mb - 0.00 in0.0 mm 0.00 in0.0 mm
10:30 AM 86.8°F30.4°C 78.7°F25.9°C 77% 0.3 mph SSW0.5 kmh SSW 1.0 mph1.6 kmh 30.04 in1017.3 mb - 0.00 in0.0 mm 0.00 in0.0 mm
10:45 AM 88.5°F31.4°C 79.9°F26.6°C 76% 0.2 mph SSW0.3 kmh SSW 1.0 mph1.6 kmh 30.03 in1016.9 mb - 0.00 in0.0 mm 0.00 in0.0 mm
11:00 AM 89.7°F32.1°C 79.4°F26.3°C 72% 2.1 mph SSW3.4 kmh SSW 4.0 mph6.4 kmh 30.03 in1016.9 mb - 0.00 in0.0 mm 0.00 in0.0 mm
11:15 AM 90.4°F32.4°C 79.2°F26.2°C 70% 0.7 mph S1.1 kmh S 2.0 mph3.2 kmh 30.03 in1016.9 mb - 0.00 in0.0 mm 0.00 in0.0 mm
11:30 AM 90.5°F32.5°C 79.0°F26.1°C 69% 0.8 mph NE1.3 kmh NE 3.0 mph4.8 kmh 30.03 in1016.9 mb - 0.00 in0.0 mm 0.00 in0.0 mm
11:45 AM 91.3°F32.9°C 78.8°F26.0°C 67% 2.6 mph WSW4.2 kmh WSW 3.0 mph4.8 kmh 30.02 in1016.6 mb - 0.00 in0.0 mm 0.00 in0.0 mm
12:00 PM 91.5°F33.1°C 79.0°F26.1°C 67% 1.5 mph SE2.4 kmh SE 3.0 mph4.8 kmh 30.02 in1016.6 mb - 0.00 in0.0 mm 0.00 in0.0 mm
12:15 PM 92.0°F33.3°C 78.5°F25.8°C 65% 0.4 mph S0.6 kmh S 1.0 mph1.6 kmh 30.02 in1016.6 mb - 0.00 in0.0 mm 0.00 in0.0 mm
12:30 PM 92.6°F33.7°C 77.7°F25.4°C 62% 1.3 mph W2.1 kmh W 3.0 mph4.8 kmh 30.01 in1016.3 mb - 0.00 in0.0 mm 0.00 in0.0 mm
12:45 PM 93.2°F34.0°C 79.7°F26.5°C 65% 1.1 mph N1.8 kmh N 2.0 mph3.2 kmh 30.01 in1016.3 mb - 0.00 in0.0 mm 0.00 in0.0 mm
01:00 PM 94.0°F34.4°C 77.5°F25.3°C 59% 1.4 mph SSW2.3 kmh SSW 2.0 mph3.2 kmh 30.00 in1015.9 mb - 0.00 in0.0 mm 0.00 in0.0 mm
01:15 PM 93.9°F34.4°C 79.4°F26.3°C 63% 0.8 mph SSW1.3 kmh SSW 1.0 mph1.6 kmh 30.00 in1015.9 mb - 0.00 in0.0 mm 0.00 in0.0 mm
01:30 PM 94.1°F34.5°C 78.6°F25.9°C 61% 0.5 mph S0.8 kmh S 2.0 mph3.2 kmh 30.00 in1015.9 mb - 0.00 in0.0 mm 0.00 in0.0 mm
01:45 PM 94.3°F34.6°C 79.3°F26.3°C 62% 1.4 mph NE2.3 kmh NE 3.0 mph4.8 kmh 30.00 in1015.9 mb - 0.00 in0.0 mm 0.00 in0.0 mm
02:00 PM 93.8°F34.3°C 79.3°F26.3°C 63% 0.5 mph S0.8 kmh S 1.0 mph1.6 kmh 29.99 in1015.6 mb - 0.00 in0.0 mm 0.00 in0.0 mm
02:15 PM 93.5°F34.2°C 78.5°F25.8°C 62% 2.2 mph SW3.5 kmh SW 3.0 mph4.8 kmh 29.99 in1015.6 mb - 0.00 in0.0 mm 0.00 in0.0 mm
02:30 PM 93.2°F34.0°C 82.0°F27.8°C 70% 1.7 mph NNE2.7 kmh NNE 4.0 mph6.4 kmh 29.98 in1015.2 mb - 0.00 in0.0 mm 0.00 in0.0 mm
02:45 PM 93.6°F34.2°C 78.7°F25.9°C 62% 1.2 mph SSE1.9 kmh SSE 3.0 mph4.8 kmh 29.98 in1015.2 mb - 0.00 in0.0 mm 0.00 in0.0 mm
03:00 PM 94.3°F34.6°C 78.3°F25.7°C 60% 2.2 mph SE3.5 kmh SE 3.0 mph4.8 kmh 29.98 in1015.2 mb - 0.00 in0.0 mm 0.00 in0.0 mm
03:15 PM 93.8°F34.3°C 77.3°F25.2°C 59% 2.1 mph NNE3.4 kmh NNE 5.0 mph8.0 kmh 29.98 in1015.2 mb - 0.00 in0.0 mm 0.00 in0.0 mm
03:30 PM 93.6°F34.2°C 79.6°F26.4°C 64% 0.1 mph S0.2 kmh S 2.0 mph3.2 kmh 29.98 in1015.2 mb - 0.00 in0.0 mm 0.00 in0.0 mm
03:45 PM 93.4°F34.1°C 79.4°F26.3°C 64% 0.1 mph S0.2 kmh S 1.0 mph1.6 kmh 29.97 in1014.9 mb - 0.00 in0.0 mm 0.00 in0.0 mm
04:00 PM 93.4°F34.1°C 79.4°F26.3°C 64% 2.3 mph E3.7 kmh E 7.0 mph11.3 kmh 29.97 in1014.9 mb - 0.00 in0.0 mm 0.00 in0.0 mm
04:15 PM 93.3°F34.1°C 79.8°F26.6°C 65% 0.2 mph SW0.3 kmh SW 1.0 mph1.6 kmh 29.97 in1014.9 mb - 0.00 in0.0 mm 0.00 in0.0 mm
04:30 PM 93.1°F33.9°C 79.6°F26.4°C 65% 0.3 mph ENE0.5 kmh ENE 1.0 mph1.6 kmh 29.97 in1014.9 mb - 0.00 in0.0 mm 0.00 in0.0 mm
04:45 PM 93.1°F33.9°C 78.6°F25.9°C 63% 1.1 mph S1.8 kmh S 3.0 mph4.8 kmh 29.97 in1014.9 mb - 0.00 in0.0 mm 0.00 in0.0 mm
05:00 PM 93.0°F33.9°C 77.5°F25.3°C 61% 2.1 mph ESE3.4 kmh ESE 2.0 mph3.2 kmh 29.97 in1014.9 mb - 0.00 in0.0 mm 0.00 in0.0 mm
05:15 PM 91.9°F33.3°C 79.8°F26.6°C 68% 0.1 mph SW0.2 kmh SW 1.0 mph1.6 kmh 29.97 in1014.9 mb - 0.00 in0.0 mm 0.00 in0.0 mm
05:30 PM 91.2°F32.9°C 79.2°F26.2°C 68% Calm Calm 1.0 mph1.6 kmh 29.97 in1014.9 mb - 0.00 in0.0 mm 0.00 in0.0 mm
05:45 PM 90.5°F32.5°C 79.4°F26.3°C 70% 0.2 mph SE0.3 kmh SE 1.0 mph1.6 kmh 29.97 in1014.9 mb - 0.00 in0.0 mm 0.00 in0.0 mm
06:00 PM 89.2°F31.8°C 78.6°F25.9°C 71% Calm Calm -- 29.97 in1014.9 mb - 0.00 in0.0 mm 0.00 in0.0 mm
06:15 PM 88.2°F31.2°C 78.4°F25.8°C 73% 0.8 mph WSW1.3 kmh WSW 1.0 mph1.6 kmh 29.97 in1014.9 mb - 0.00 in0.0 mm 0.00 in0.0 mm
06:30 PM 87.3°F30.7°C 78.0°F25.6°C 74% 1.8 mph S2.9 kmh S 4.0 mph6.4 kmh 29.97 in1014.9 mb - 0.00 in0.0 mm 0.00 in0.0 mm
06:45 PM 86.4°F30.2°C 77.9°F25.5°C 76% 0.4 mph S0.6 kmh S 1.0 mph1.6 kmh 29.96 in1014.6 mb - 0.00 in0.0 mm 0.00 in0.0 mm
07:00 PM 85.5°F29.7°C 77.5°F25.3°C 77% Calm Calm -- 29.97 in1014.9 mb - 0.00 in0.0 mm 0.00 in0.0 mm
07:15 PM 84.8°F29.3°C 77.1°F25.1°C 78% Calm Calm -- 29.97 in1014.9 mb - 0.00 in0.0 mm 0.00 in0.0 mm
07:30 PM 83.9°F28.8°C 77.1°F25.1°C 80% 0.1 mph S0.2 kmh S -- 29.97 in1014.9 mb - 0.00 in0.0 mm 0.00 in0.0 mm
07:45 PM 83.1°F28.4°C 76.7°F24.8°C 81% Calm Calm -- 29.97 in1014.9 mb - 0.00 in0.0 mm 0.00 in0.0 mm
08:00 PM 82.3°F27.9°C 76.6°F24.8°C 83% Calm Calm -- 29.97 in1014.9 mb - 0.00 in0.0 mm 0.00 in0.0 mm
08:15 PM 81.4°F27.4°C 76.5°F24.7°C 85% Calm Calm -- 29.98 in1015.2 mb - 0.00 in0.0 mm 0.00 in0.0 mm
08:30 PM 80.8°F27.1°C 76.3°F24.6°C 86% Calm Calm -- 29.98 in1015.2 mb - 0.00 in0.0 mm 0.00 in0.0 mm
08:45 PM 80.3°F26.8°C 76.1°F24.5°C 87% Calm Calm -- 29.98 in1015.2 mb - 0.00 in0.0 mm 0.00 in0.0 mm
09:00 PM 79.9°F26.6°C 75.7°F24.3°C 87% Calm Calm -- 29.98 in1015.2 mb - 0.00 in0.0 mm 0.00 in0.0 mm
09:15 PM 79.5°F26.4°C 75.6°F24.2°C 88% Calm Calm -- 29.98 in1015.2 mb - 0.00 in0.0 mm 0.00 in0.0 mm
09:30 PM 79.1°F26.2°C 75.2°F24.0°C 88% Calm Calm -- 29.98 in1015.2 mb - 0.00 in0.0 mm 0.00 in0.0 mm
09:45 PM 78.8°F26.0°C 75.3°F24.1°C 89% Calm Calm -- 29.98 in1015.2 mb - 0.00 in0.0 mm 0.00 in0.0 mm
10:00 PM 78.6°F25.9°C 75.1°F23.9°C 89% 0.1 mph ENE0.2 kmh ENE 2.0 mph3.2 kmh 29.98 in1015.2 mb - 0.00 in0.0 mm 0.00 in0.0 mm
10:15 PM 78.7°F25.9°C 74.8°F23.8°C 88% 1.2 mph SSE1.9 kmh SSE 5.0 mph8.0 kmh 29.98 in1015.2 mb - 0.00 in0.0 mm 0.00 in0.0 mm
10:30 PM 79.3°F26.3°C 74.8°F23.8°C 86% Calm Calm -- 29.99 in1015.6 mb - 0.00 in0.0 mm 0.00 in0.0 mm
10:45 PM 79.8°F26.6°C 74.9°F23.8°C 85% 0.2 mph N0.3 kmh N 3.0 mph4.8 kmh 29.98 in1015.2 mb - 0.00 in0.0 mm 0.00 in0.0 mm
11:00 PM 79.9°F26.6°C 74.6°F23.7°C 84% 0.9 mph SW1.4 kmh SW 2.0 mph3.2 kmh 29.99 in1015.6 mb - 0.00 in0.0 mm 0.00 in0.0 mm
11:15 PM 80.2°F26.8°C 74.9°F23.8°C 84% Calm Calm -- 29.99 in1015.6 mb - 0.00 in0.0 mm 0.00 in0.0 mm
11:30 PM 80.0°F26.7°C 74.7°F23.7°C 84% 0.1 mph SSE0.2 kmh SSE 1.0 mph1.6 kmh 29.99 in1015.6 mb - 0.00 in0.0 mm 0.00 in0.0 mm
11:45 PM 79.7°F26.5°C 74.4°F23.6°C 84% Calm Calm -- 29.99 in1015.6 mb - 0.00 in0.0 mm 0.00 in0.0 mm